createdAt,value
2023-05-25T00:00:41.770Z,95021.00
2023-05-25T00:01:37.423Z,95021.00
2023-05-25T00:02:36.501Z,95026.00
2023-05-25T00:03:36.509Z,95024.00
2023-05-25T00:04:36.559Z,95028.00
2023-05-25T00:05:36.390Z,95026.00
2023-05-25T00:06:36.404Z,95026.00
2023-05-25T00:07:36.360Z,95024.00
2023-05-25T00:08:36.378Z,95024.00
2023-05-25T00:09:36.341Z,95022.00
2023-05-25T00:10:36.324Z,95024.00
2023-05-25T00:11:36.391Z,95024.00
2023-05-25T00:12:36.342Z,95022.00
2023-05-25T00:13:36.314Z,95024.00
2023-05-25T00:14:36.316Z,95021.00
2023-05-25T00:15:36.317Z,95019.00
2023-05-25T00:16:36.326Z,95017.00
2023-05-25T00:17:36.353Z,95013.00
2023-05-25T00:18:36.319Z,95013.00
2023-05-25T00:19:36.348Z,95011.00
2023-05-25T00:20:36.423Z,95011.00
2023-05-25T00:21:36.407Z,95015.00
2023-05-25T00:22:36.455Z,95017.00
2023-05-25T00:23:36.481Z,95015.00
2023-05-25T00:24:36.470Z,95017.00
2023-05-25T00:25:36.488Z,95015.00
2023-05-25T00:26:36.499Z,95013.00
2023-05-25T00:27:36.518Z,95015.00
2023-05-25T00:28:36.601Z,95017.00
2023-05-25T00:29:36.622Z,95019.00
2023-05-25T00:30:36.714Z,95021.00
2023-05-25T00:31:36.725Z,95022.00
2023-05-25T00:32:36.678Z,95021.00
2023-05-25T00:33:36.703Z,95022.00
2023-05-25T00:34:36.688Z,95022.00
2023-05-25T00:35:36.731Z,95022.00
2023-05-25T00:36:36.756Z,95022.00
2023-05-25T00:37:36.748Z,95022.00
2023-05-25T00:38:36.829Z,95022.00
2023-05-25T00:39:36.808Z,95024.00
2023-05-25T00:40:36.837Z,95024.00
2023-05-25T00:41:36.843Z,95026.00
2023-05-25T00:42:36.896Z,95024.00
2023-05-25T00:43:36.944Z,95024.00
2023-05-25T00:44:36.938Z,95022.00
2023-05-25T00:45:36.977Z,95024.00
2023-05-25T00:46:37.076Z,95026.00
2023-05-25T00:47:37.019Z,95028.00
2023-05-25T00:48:37.064Z,95026.00
2023-05-25T00:49:37.070Z,95024.00
2023-05-25T00:50:37.079Z,95026.00
2023-05-25T00:51:37.116Z,95024.00
2023-05-25T00:52:37.154Z,95024.00
2023-05-25T00:53:37.185Z,95024.00
2023-05-25T00:54:37.205Z,95026.00
2023-05-25T00:55:37.209Z,95024.00
2023-05-25T00:56:37.221Z,95026.00
2023-05-25T00:57:37.268Z,95024.00
2023-05-25T00:58:37.355Z,95022.00
2023-05-25T00:59:37.336Z,95024.00
2023-05-25T01:00:37.359Z,95024.00
2023-05-25T01:01:37.443Z,95024.00
2023-05-25T01:02:37.463Z,95026.00
2023-05-25T01:03:37.549Z,95024.00
2023-05-25T01:04:37.473Z,95024.00
2023-05-25T01:05:37.485Z,95022.00
2023-05-25T01:06:37.558Z,95024.00
2023-05-25T01:07:37.537Z,95022.00
2023-05-25T01:08:37.551Z,95022.00
2023-05-25T01:09:37.593Z,95022.00
2023-05-25T01:10:37.605Z,95024.00
2023-05-25T01:11:37.633Z,95026.00
2023-05-25T01:12:37.665Z,95024.00
2023-05-25T01:13:37.682Z,95024.00
2023-05-25T01:14:37.686Z,95024.00
2023-05-25T01:15:37.731Z,95022.00
2023-05-25T01:16:37.855Z,95026.00
2023-05-25T01:17:37.839Z,95024.00
2023-05-25T01:18:37.868Z,95024.00
2023-05-25T01:19:37.890Z,95024.00
2023-05-25T01:20:37.995Z,95026.00
2023-05-25T01:21:38.023Z,95026.00
2023-05-25T01:22:37.959Z,95026.00
2023-05-25T01:23:38.015Z,95030.00
2023-05-25T01:24:38.010Z,95034.00
2023-05-25T01:25:38.068Z,95032.00
2023-05-25T01:26:38.074Z,95034.00
2023-05-25T01:27:38.077Z,95036.00
2023-05-25T01:28:38.097Z,95038.00
2023-05-25T01:29:38.142Z,95038.00
2023-05-25T01:30:38.149Z,95036.00
2023-05-25T01:31:38.236Z,95034.00
2023-05-25T01:32:38.243Z,95034.00
2023-05-25T01:33:38.218Z,95034.00
2023-05-25T01:34:38.262Z,95036.00
2023-05-25T01:35:38.290Z,95034.00
2023-05-25T01:36:38.326Z,95034.00
2023-05-25T01:37:38.376Z,95032.00
2023-05-25T01:38:38.354Z,95030.00
2023-05-25T01:39:38.369Z,95030.00
2023-05-25T01:40:38.431Z,95028.00
2023-05-25T01:41:38.461Z,95028.00
2023-05-25T01:42:38.454Z,95028.00
2023-05-25T01:43:38.515Z,95028.00
2023-05-25T01:44:38.546Z,95026.00
2023-05-25T01:45:38.645Z,95022.00
2023-05-25T01:46:38.627Z,95022.00
2023-05-25T01:47:38.688Z,95024.00
2023-05-25T01:48:38.622Z,95026.00
2023-05-25T01:49:38.698Z,95028.00
2023-05-25T01:50:38.696Z,95026.00
2023-05-25T01:51:38.715Z,95030.00
2023-05-25T01:52:38.720Z,95032.00
2023-05-25T01:53:38.778Z,95032.00
2023-05-25T01:54:38.830Z,95034.00
2023-05-25T01:55:38.829Z,95034.00
2023-05-25T01:56:38.866Z,95034.00
2023-05-25T01:57:38.901Z,95032.00
2023-05-25T01:58:38.935Z,95036.00
2023-05-25T01:59:38.983Z,95032.00
2023-05-25T02:00:38.982Z,95030.00
2023-05-25T02:01:39.007Z,95036.00
2023-05-25T02:02:39.064Z,95032.00
2023-05-25T02:03:39.064Z,95034.00
2023-05-25T02:04:39.165Z,95036.00
2023-05-25T02:05:39.137Z,95040.00
2023-05-25T02:06:39.171Z,95042.00
2023-05-25T02:07:39.179Z,95042.00
2023-05-25T02:08:39.214Z,95044.00
2023-05-25T02:09:39.231Z,95040.00
2023-05-25T02:10:39.295Z,95040.00
2023-05-25T02:11:39.289Z,95040.00
2023-05-25T02:12:39.312Z,95040.00
2023-05-25T02:13:39.385Z,95040.00
2023-05-25T02:14:39.401Z,95040.00
2023-05-25T02:15:39.462Z,95038.00
2023-05-25T02:16:39.442Z,95038.00
2023-05-25T02:17:39.564Z,95036.00
2023-05-25T02:18:39.515Z,95036.00
2023-05-25T02:19:39.553Z,95036.00
2023-05-25T02:20:39.712Z,95036.00
2023-05-25T02:21:39.627Z,95036.00
2023-05-25T02:22:39.652Z,95040.00
2023-05-25T02:23:39.665Z,95040.00
2023-05-25T02:24:39.714Z,95042.00
2023-05-25T02:25:39.721Z,95044.00
2023-05-25T02:26:39.773Z,95046.00
2023-05-25T02:27:39.797Z,95048.00
2023-05-25T02:28:39.835Z,95050.00
2023-05-25T02:29:39.806Z,95048.00
2023-05-25T02:30:39.892Z,95050.00
2023-05-25T02:31:40.018Z,95050.00
2023-05-25T02:32:40.050Z,95050.00
2023-05-25T02:33:39.977Z,95052.00
2023-05-25T02:34:40.028Z,95048.00
2023-05-25T02:35:40.031Z,95050.00
2023-05-25T02:36:40.045Z,95052.00
2023-05-25T02:37:40.118Z,95050.00
2023-05-25T02:38:40.118Z,95052.00
2023-05-25T02:39:40.214Z,95052.00
2023-05-25T02:40:40.166Z,95054.00
2023-05-25T02:41:40.227Z,95052.00
2023-05-25T02:42:40.243Z,95052.00
2023-05-25T02:43:40.236Z,95052.00
2023-05-25T02:44:40.298Z,95052.00
2023-05-25T02:45:40.326Z,95052.00
2023-05-25T02:46:40.407Z,95054.00
2023-05-25T02:47:40.434Z,95056.00
2023-05-25T02:48:40.437Z,95056.00
2023-05-25T02:49:40.491Z,95056.00
2023-05-25T02:50:40.516Z,95056.00
2023-05-25T02:51:40.571Z,95056.00
2023-05-25T02:52:40.551Z,95058.00
2023-05-25T02:53:40.615Z,95060.00
2023-05-25T02:54:40.619Z,95060.00
2023-05-25T02:55:40.770Z,95060.00
2023-05-25T02:56:40.688Z,95064.00
2023-05-25T02:57:40.728Z,95064.00
2023-05-25T02:58:40.769Z,95064.00
2023-05-25T02:59:40.779Z,95062.00
2023-05-25T03:00:40.848Z,95060.00
2023-05-25T03:01:40.905Z,95062.00
2023-05-25T03:02:40.898Z,95056.00
2023-05-25T03:03:40.984Z,95060.00
2023-05-25T03:04:40.917Z,95062.00
2023-05-25T03:05:41.035Z,95064.00
2023-05-25T03:06:40.993Z,95066.00
2023-05-25T03:07:41.064Z,95064.00
2023-05-25T03:08:41.048Z,95064.00
2023-05-25T03:09:41.074Z,95066.00
2023-05-25T03:10:41.103Z,95064.00
2023-05-25T03:11:41.205Z,95064.00
2023-05-25T03:12:41.201Z,95062.00
2023-05-25T03:13:41.251Z,95064.00
2023-05-25T03:14:41.261Z,95066.00
2023-05-25T03:15:41.406Z,95066.00
2023-05-25T03:16:41.336Z,95066.00
2023-05-25T03:17:41.422Z,95064.00
2023-05-25T03:18:41.396Z,95066.00
2023-05-25T03:19:41.458Z,95066.00
2023-05-25T03:20:41.506Z,95062.00
2023-05-25T03:21:41.501Z,95064.00
2023-05-25T03:22:41.569Z,95066.00
2023-05-25T03:23:41.564Z,95071.00
2023-05-25T03:24:41.837Z,95071.00
2023-05-25T03:25:41.715Z,95073.00
2023-05-25T03:26:41.698Z,95073.00
2023-05-25T03:27:41.695Z,95075.00
2023-05-25T03:28:41.725Z,95075.00
2023-05-25T03:29:41.756Z,95075.00
2023-05-25T03:30:41.779Z,95077.00
2023-05-25T03:31:41.885Z,95077.00
2023-05-25T03:32:41.877Z,95077.00
2023-05-25T03:33:41.855Z,95081.00
2023-05-25T03:34:41.909Z,95085.00
2023-05-25T03:35:42.051Z,95087.00
2023-05-25T03:36:41.987Z,95089.00
2023-05-25T03:37:42.037Z,95087.00
2023-05-25T03:38:42.054Z,95087.00
2023-05-25T03:39:42.081Z,95087.00
2023-05-25T03:40:42.126Z,95087.00
2023-05-25T03:41:42.182Z,95089.00
2023-05-25T03:42:42.185Z,95087.00
2023-05-25T03:43:42.216Z,95089.00
2023-05-25T03:44:42.264Z,95091.00
2023-05-25T03:45:42.381Z,95091.00
2023-05-25T03:46:42.352Z,95091.00
2023-05-25T03:47:42.438Z,95085.00
2023-05-25T03:48:42.490Z,95087.00
2023-05-25T03:49:42.446Z,95085.00
2023-05-25T03:50:42.489Z,95089.00
2023-05-25T03:51:42.492Z,95089.00
2023-05-25T03:52:42.548Z,95087.00
2023-05-25T03:53:42.700Z,95089.00
2023-05-25T03:54:42.695Z,95089.00
2023-05-25T03:55:42.718Z,95089.00
2023-05-25T03:56:42.693Z,95089.00
2023-05-25T03:57:42.722Z,95091.00
2023-05-25T03:58:42.724Z,95093.00
2023-05-25T03:59:42.820Z,95091.00
2023-05-25T04:00:42.820Z,95095.00
2023-05-25T04:01:42.847Z,95103.00
2023-05-25T04:02:42.949Z,95107.00
2023-05-25T04:03:43.081Z,95105.00
2023-05-25T04:04:43.004Z,95107.00
2023-05-25T04:05:43.287Z,95105.00
2023-05-25T04:06:43.028Z,95109.00
2023-05-25T04:07:43.061Z,95109.00
2023-05-25T04:08:43.105Z,95111.00
2023-05-25T04:09:43.163Z,95111.00
2023-05-25T04:10:43.181Z,95113.00
2023-05-25T04:11:43.221Z,95116.00
2023-05-25T04:12:43.274Z,95118.00
2023-05-25T04:13:43.339Z,95118.00
2023-05-25T04:14:43.400Z,95118.00
2023-05-25T04:15:43.647Z,95118.00
2023-05-25T04:16:43.607Z,95120.00
2023-05-25T04:17:43.580Z,95120.00
2023-05-25T04:18:43.641Z,95122.00
2023-05-25T04:19:43.649Z,95122.00
2023-05-25T04:20:43.787Z,95122.00
2023-05-25T04:21:43.760Z,95124.00
2023-05-25T04:22:43.826Z,95124.00
2023-05-25T04:23:43.897Z,95126.00
2023-05-25T04:24:43.957Z,95130.00
2023-05-25T04:25:44.221Z,95132.00
2023-05-25T04:26:44.057Z,95132.00
2023-05-25T04:27:44.123Z,95136.00
2023-05-25T04:28:44.203Z,95136.00
2023-05-25T04:29:44.302Z,95136.00
2023-05-25T04:30:44.333Z,95118.00
2023-05-25T04:31:44.425Z,95126.00
2023-05-25T04:32:45.449Z,95128.00
2023-05-25T04:33:44.480Z,95126.00
2023-05-25T04:34:44.555Z,95128.00
2023-05-25T04:35:44.784Z,95124.00
2023-05-25T04:36:44.668Z,95124.00
2023-05-25T04:37:44.743Z,95124.00
2023-05-25T04:38:44.764Z,95122.00
2023-05-25T04:39:44.856Z,95128.00
2023-05-25T04:40:44.878Z,95130.00
2023-05-25T04:41:44.947Z,95136.00
2023-05-25T04:42:45.074Z,95132.00
2023-05-25T04:44:03.540Z,95138.00
2023-05-25T04:44:46.064Z,95136.00
2023-05-25T04:45:45.258Z,95134.00
2023-05-25T04:46:45.064Z,95134.00
2023-05-25T04:47:45.052Z,95134.00
2023-05-25T04:48:45.016Z,95134.00
2023-05-25T04:49:45.035Z,95132.00
2023-05-25T04:50:44.981Z,95132.00
2023-05-25T04:51:44.995Z,95134.00
2023-05-25T04:52:44.967Z,95138.00
2023-05-25T04:53:44.964Z,95138.00
2023-05-25T04:54:45.023Z,95138.00
2023-05-25T04:55:45.384Z,95136.00
2023-05-25T04:56:45.071Z,95138.00
2023-05-25T04:57:45.117Z,95146.00
2023-05-25T04:58:45.146Z,95136.00
2023-05-25T04:59:45.163Z,95136.00
2023-05-25T05:00:45.592Z,95146.00
2023-05-25T05:01:45.398Z,95148.00
2023-05-25T05:02:45.324Z,95148.00
2023-05-25T05:03:45.308Z,95152.00
2023-05-25T05:04:45.330Z,95152.00
2023-05-25T05:05:45.606Z,95152.00
2023-05-25T05:06:45.363Z,95152.00
2023-05-25T05:07:45.420Z,95150.00
2023-05-25T05:08:45.409Z,95154.00
2023-05-25T05:09:45.429Z,95154.00
2023-05-25T05:10:45.740Z,95156.00
2023-05-25T05:11:45.475Z,95156.00
2023-05-25T05:12:45.510Z,95160.00
2023-05-25T05:13:45.523Z,95160.00
2023-05-25T05:14:45.565Z,95162.00
2023-05-25T05:15:45.763Z,95158.00
2023-05-25T05:16:45.598Z,95160.00
2023-05-25T05:17:45.684Z,95158.00
2023-05-25T05:18:45.633Z,95162.00
2023-05-25T05:19:45.635Z,95164.00
2023-05-25T05:20:45.814Z,95166.00
2023-05-25T05:21:45.687Z,95168.00
2023-05-25T05:22:45.675Z,95166.00
2023-05-25T05:23:45.681Z,95168.00
2023-05-25T05:24:45.733Z,95169.00
2023-05-25T05:25:45.938Z,95171.00
2023-05-25T05:26:57.203Z,95173.00
2023-05-25T05:27:46.782Z,95173.00
2023-05-25T05:28:45.772Z,95181.00
2023-05-25T05:29:45.723Z,95177.00
2023-05-25T05:30:45.728Z,95177.00
2023-05-25T05:31:45.881Z,95177.00
2023-05-25T05:32:46.846Z,95179.00
2023-05-25T05:33:45.742Z,95177.00
2023-05-25T05:34:45.702Z,95179.00
2023-05-25T05:35:45.946Z,95181.00
2023-05-25T05:36:57.386Z,95183.00
2023-05-25T05:37:46.644Z,95183.00
2023-05-25T05:38:45.670Z,95183.00
2023-05-25T05:39:45.652Z,95183.00
2023-05-25T05:40:45.637Z,95185.00
2023-05-25T05:41:45.653Z,95187.00
2023-05-25T05:42:45.611Z,95187.00
2023-05-25T05:43:45.659Z,95191.00
2023-05-25T05:44:45.635Z,95191.00
2023-05-25T05:45:45.862Z,95193.00
2023-05-25T05:46:45.629Z,95197.00
2023-05-25T05:47:45.619Z,95197.00
2023-05-25T05:48:45.558Z,95209.00
2023-05-25T05:49:45.611Z,95211.00
2023-05-25T05:50:45.565Z,95213.00
2023-05-25T05:51:45.583Z,95215.00
2023-05-25T05:52:45.534Z,95215.00
2023-05-25T05:53:45.536Z,95207.00
2023-05-25T05:54:45.529Z,95207.00
2023-05-25T05:55:46.955Z,95207.00
2023-05-25T05:56:45.517Z,95207.00
2023-05-25T05:57:45.515Z,95220.00
2023-05-25T05:58:45.493Z,95220.00
2023-05-25T05:59:45.505Z,95220.00
2023-05-25T06:00:45.501Z,95222.00
2023-05-25T06:01:45.562Z,95218.00
2023-05-25T06:02:45.563Z,95218.00
2023-05-25T06:03:45.477Z,95220.00
2023-05-25T06:04:45.461Z,95218.00
2023-05-25T06:05:45.734Z,95216.00
2023-05-25T06:06:45.449Z,95218.00
2023-05-25T06:07:45.446Z,95216.00
2023-05-25T06:08:45.466Z,95216.00
2023-05-25T06:09:45.427Z,95216.00
2023-05-25T06:10:45.427Z,95216.00
2023-05-25T06:11:45.409Z,95222.00
2023-05-25T06:12:45.449Z,95216.00
2023-05-25T06:13:46.583Z,95216.00
2023-05-25T06:14:45.424Z,95216.00
2023-05-25T06:15:45.661Z,95215.00
2023-05-25T06:16:45.399Z,95216.00
2023-05-25T06:17:45.395Z,95218.00
2023-05-25T06:18:45.388Z,95218.00
2023-05-25T06:19:45.368Z,95216.00
2023-05-25T06:20:45.445Z,95216.00
2023-05-25T06:21:45.347Z,95215.00
2023-05-25T06:22:45.358Z,95213.00
2023-05-25T06:23:45.338Z,95216.00
2023-05-25T06:24:45.317Z,95215.00
2023-05-25T06:25:45.452Z,95213.00
2023-05-25T06:26:45.313Z,95215.00
2023-05-25T06:27:45.267Z,95215.00
2023-05-25T06:28:45.308Z,95211.00
2023-05-25T06:29:45.280Z,95207.00
2023-05-25T06:30:45.298Z,95201.00
2023-05-25T06:31:45.325Z,95213.00
2023-05-25T06:32:45.272Z,95216.00
2023-05-25T06:33:45.281Z,95218.00
2023-05-25T06:34:45.246Z,95218.00
2023-05-25T06:35:47.058Z,95203.00
2023-05-25T06:36:45.233Z,95203.00
2023-05-25T06:37:45.197Z,95207.00
2023-05-25T06:38:45.224Z,95207.00
2023-05-25T06:39:45.268Z,95205.00
2023-05-25T06:40:45.251Z,95207.00
2023-05-25T06:41:45.297Z,95211.00
2023-05-25T06:42:45.289Z,95209.00
2023-05-25T06:43:45.250Z,95207.00
2023-05-25T06:44:45.297Z,95207.00
2023-05-25T06:45:45.638Z,95211.00
2023-05-25T06:46:45.433Z,95215.00
2023-05-25T06:47:45.444Z,95228.00
2023-05-25T06:48:45.430Z,95228.00
2023-05-25T06:49:45.430Z,95230.00
2023-05-25T06:50:45.464Z,95228.00
2023-05-25T06:51:45.481Z,95228.00
2023-05-25T06:52:45.487Z,95226.00
2023-05-25T06:53:45.479Z,95222.00
2023-05-25T06:54:45.505Z,95224.00
2023-05-25T06:55:45.721Z,95224.00
2023-05-25T06:56:45.471Z,95222.00
2023-05-25T06:57:45.468Z,95222.00
2023-05-25T06:58:45.460Z,95224.00
2023-05-25T06:59:45.484Z,95228.00
2023-05-25T07:00:46.763Z,95226.00
2023-05-25T07:01:45.668Z,95228.00
2023-05-25T07:02:45.654Z,95228.00
2023-05-25T07:03:45.654Z,95226.00
2023-05-25T07:04:45.792Z,95228.00
2023-05-25T07:05:46.023Z,95232.00
2023-05-25T07:06:45.864Z,95234.00
2023-05-25T07:07:45.886Z,95234.00
2023-05-25T07:08:45.944Z,95234.00
2023-05-25T07:09:46.010Z,95238.00
2023-05-25T07:10:47.975Z,95236.00
2023-05-25T07:11:46.025Z,95238.00
2023-05-25T07:12:46.047Z,95238.00
2023-05-25T07:13:46.050Z,95236.00
2023-05-25T07:14:46.021Z,95240.00
2023-05-25T07:15:46.925Z,95240.00
2023-05-25T07:16:45.978Z,95234.00
2023-05-25T07:17:46.012Z,95236.00
2023-05-25T07:18:45.974Z,95234.00
2023-05-25T07:19:46.053Z,95236.00
2023-05-25T07:20:46.039Z,95236.00
2023-05-25T07:21:45.940Z,95228.00
2023-05-25T07:22:45.969Z,95238.00
2023-05-25T07:23:45.938Z,95238.00
2023-05-25T07:24:45.950Z,95236.00
2023-05-25T07:25:46.285Z,95236.00
2023-05-25T07:26:45.955Z,95234.00
2023-05-25T07:27:45.948Z,95232.00
2023-05-25T07:28:45.951Z,95232.00
2023-05-25T07:29:45.943Z,95232.00
2023-05-25T07:30:45.951Z,95218.00
2023-05-25T07:31:46.035Z,95216.00
2023-05-25T07:32:45.917Z,95224.00
2023-05-25T07:33:45.916Z,95222.00
2023-05-25T07:34:45.883Z,95218.00
2023-05-25T07:35:46.154Z,95222.00
2023-05-25T07:36:45.882Z,95218.00
2023-05-25T07:37:46.316Z,95218.00
2023-05-25T07:38:45.824Z,95216.00
2023-05-25T07:39:45.858Z,95232.00
2023-05-25T07:40:45.832Z,95234.00
2023-05-25T07:41:45.859Z,95236.00
2023-05-25T07:42:45.862Z,95238.00
2023-05-25T07:43:45.802Z,95238.00
2023-05-25T07:44:45.817Z,95236.00
2023-05-25T07:45:46.003Z,95236.00
2023-05-25T07:46:45.874Z,95238.00
2023-05-25T07:47:45.842Z,95242.00
2023-05-25T07:48:45.806Z,95242.00
2023-05-25T07:49:45.824Z,95242.00
2023-05-25T07:50:45.798Z,95238.00
2023-05-25T07:51:45.847Z,95236.00
2023-05-25T07:52:45.798Z,95238.00
2023-05-25T07:53:45.763Z,95240.00
2023-05-25T07:54:45.772Z,95236.00
2023-05-25T07:55:46.086Z,95234.00
2023-05-25T07:56:45.852Z,95234.00
2023-05-25T07:57:45.917Z,95238.00
2023-05-25T07:58:45.911Z,95240.00
2023-05-25T07:59:45.987Z,95240.00
2023-05-25T08:00:46.007Z,95238.00
2023-05-25T08:01:46.101Z,95238.00
2023-05-25T08:02:46.225Z,95238.00
2023-05-25T08:03:49.457Z,95236.00
2023-05-25T08:04:46.187Z,95236.00
2023-05-25T08:05:46.241Z,95238.00
2023-05-25T08:06:46.068Z,95238.00
2023-05-25T08:07:46.113Z,95240.00
2023-05-25T08:08:46.086Z,95238.00
2023-05-25T08:09:46.094Z,95238.00
2023-05-25T08:10:46.072Z,95236.00
2023-05-25T08:11:46.075Z,95234.00
2023-05-25T08:12:48.847Z,95236.00
2023-05-25T08:13:46.063Z,95232.00
2023-05-25T08:14:46.059Z,95236.00
2023-05-25T08:15:46.196Z,95238.00
2023-05-25T08:16:46.075Z,95236.00
2023-05-25T08:17:46.040Z,95236.00
2023-05-25T08:18:46.047Z,95238.00
2023-05-25T08:19:46.014Z,95238.00
2023-05-25T08:20:46.110Z,95238.00
2023-05-25T08:21:46.018Z,95238.00
2023-05-25T08:22:45.983Z,95240.00
2023-05-25T08:23:46.005Z,95242.00
2023-05-25T08:24:45.970Z,95240.00
2023-05-25T08:25:46.055Z,95228.00
2023-05-25T08:27:46.922Z,95228.00
2023-05-25T08:28:45.967Z,95226.00
2023-05-25T08:29:45.940Z,95226.00
2023-05-25T08:30:46.027Z,95226.00
2023-05-25T08:31:45.964Z,95226.00
2023-05-25T08:32:45.949Z,95226.00
2023-05-25T08:33:45.906Z,95224.00
2023-05-25T08:34:45.905Z,95228.00
2023-05-25T08:35:46.094Z,95228.00
2023-05-25T08:36:45.891Z,95228.00
2023-05-25T08:37:45.917Z,95228.00
2023-05-25T08:38:45.961Z,95230.00
2023-05-25T08:39:45.884Z,95226.00
2023-05-25T08:40:45.848Z,95230.00
2023-05-25T08:41:45.902Z,95228.00
2023-05-25T08:42:45.926Z,95230.00
2023-05-25T08:43:46.007Z,95226.00
2023-05-25T08:44:46.042Z,95224.00
2023-05-25T08:45:47.328Z,95222.00
2023-05-25T08:46:46.140Z,95224.00
2023-05-25T08:47:46.263Z,95224.00
2023-05-25T08:48:46.334Z,95220.00
2023-05-25T08:49:46.420Z,95218.00
2023-05-25T08:50:46.297Z,95215.00
2023-05-25T08:51:46.350Z,95213.00
2023-05-25T08:52:46.432Z,95209.00
2023-05-25T08:53:46.463Z,95209.00
2023-05-25T08:54:46.816Z,95209.00
2023-05-25T08:55:46.711Z,95211.00
2023-05-25T08:56:46.545Z,95211.00
2023-05-25T08:57:46.615Z,95211.00
2023-05-25T08:58:46.684Z,95207.00
2023-05-25T08:59:46.752Z,95209.00
2023-05-25T09:00:46.821Z,95207.00
2023-05-25T09:01:46.807Z,95207.00
2023-05-25T09:02:46.888Z,95207.00
2023-05-25T09:03:46.968Z,95199.00
2023-05-25T09:04:46.867Z,95199.00
2023-05-25T09:05:47.006Z,95199.00
2023-05-25T09:06:57.180Z,95197.00
2023-05-25T09:07:48.297Z,95201.00
2023-05-25T09:08:46.929Z,95201.00
2023-05-25T09:09:46.911Z,95201.00
2023-05-25T09:10:46.898Z,95203.00
2023-05-25T09:11:46.889Z,95203.00
2023-05-25T09:12:46.901Z,95199.00
2023-05-25T09:13:46.893Z,95201.00
2023-05-25T09:14:46.895Z,95205.00
2023-05-25T09:15:46.878Z,95203.00
2023-05-25T09:16:46.975Z,95203.00
2023-05-25T09:17:46.868Z,95203.00
2023-05-25T09:18:46.860Z,95203.00
2023-05-25T09:19:46.836Z,95203.00
2023-05-25T09:20:47.642Z,95205.00
2023-05-25T09:21:46.836Z,95207.00
2023-05-25T09:22:46.822Z,95205.00
2023-05-25T09:23:46.849Z,95203.00
2023-05-25T09:24:46.783Z,95203.00
2023-05-25T09:25:46.787Z,95203.00
2023-05-25T09:26:48.154Z,95203.00
2023-05-25T09:27:46.796Z,95203.00
2023-05-25T09:28:46.781Z,95199.00
2023-05-25T09:29:46.797Z,95199.00
2023-05-25T09:30:46.854Z,95199.00
2023-05-25T09:31:46.760Z,95201.00
2023-05-25T09:32:46.799Z,95203.00
2023-05-25T09:33:46.741Z,95201.00
2023-05-25T09:34:46.835Z,95203.00
2023-05-25T09:35:46.750Z,95205.00
2023-05-25T09:36:46.943Z,95205.00
2023-05-25T09:37:46.859Z,95203.00
2023-05-25T09:38:46.875Z,95205.00
2023-05-25T09:39:46.744Z,95207.00
2023-05-25T09:40:47.009Z,95205.00
2023-05-25T09:41:46.812Z,95201.00
2023-05-25T09:42:46.748Z,95199.00
2023-05-25T09:43:54.686Z,95199.00
2023-05-25T09:44:47.729Z,95199.00
2023-05-25T09:45:46.771Z,95193.00
2023-05-25T09:46:46.792Z,95195.00
2023-05-25T09:47:46.793Z,95199.00
2023-05-25T09:48:46.728Z,95197.00
2023-05-25T09:49:46.680Z,95193.00
2023-05-25T09:50:48.952Z,95197.00
2023-05-25T09:51:46.678Z,95195.00
2023-05-25T09:52:46.690Z,95193.00
2023-05-25T09:53:46.700Z,95193.00
2023-05-25T09:54:46.660Z,95191.00
2023-05-25T09:55:53.938Z,95189.00
2023-05-25T09:56:47.679Z,95187.00
2023-05-25T09:57:46.680Z,95187.00
2023-05-25T09:58:46.700Z,95187.00
2023-05-25T09:59:46.662Z,95187.00
2023-05-25T10:00:46.856Z,95183.00
2023-05-25T10:01:46.667Z,95181.00
2023-05-25T10:02:46.649Z,95179.00
2023-05-25T10:03:59.745Z,95177.00
2023-05-25T10:04:47.604Z,95179.00
2023-05-25T10:05:46.583Z,95175.00
2023-05-25T10:06:46.632Z,95175.00
2023-05-25T10:07:46.615Z,95175.00
2023-05-25T10:08:46.582Z,95171.00
2023-05-25T10:09:46.561Z,95173.00
2023-05-25T10:10:46.790Z,95171.00
2023-05-25T10:11:46.533Z,95171.00
2023-05-25T10:12:46.574Z,95171.00
2023-05-25T10:13:46.603Z,95166.00
2023-05-25T10:14:46.580Z,95169.00
2023-05-25T10:15:46.547Z,95169.00
2023-05-25T10:16:46.575Z,95169.00
2023-05-25T10:17:46.604Z,95168.00
2023-05-25T10:18:46.511Z,95168.00
2023-05-25T10:19:46.504Z,95168.00
2023-05-25T10:20:46.589Z,95168.00
2023-05-25T10:21:46.499Z,95166.00
2023-05-25T10:22:46.476Z,95169.00
2023-05-25T10:23:46.504Z,95162.00
2023-05-25T10:24:46.520Z,95160.00
2023-05-25T10:25:46.477Z,95160.00
2023-05-25T10:26:46.473Z,95162.00
2023-05-25T10:27:46.482Z,95160.00
2023-05-25T10:28:46.485Z,95162.00
2023-05-25T10:29:46.480Z,95158.00
2023-05-25T10:30:46.448Z,95156.00
2023-05-25T10:31:46.480Z,95158.00
2023-05-25T10:32:46.499Z,95156.00
2023-05-25T10:33:49.277Z,95152.00
2023-05-25T10:34:47.455Z,95154.00
2023-05-25T10:36:01.391Z,95152.00
2023-05-25T10:36:47.396Z,95150.00
2023-05-25T10:37:46.427Z,95154.00
2023-05-25T10:38:46.407Z,95152.00
2023-05-25T10:39:46.395Z,95154.00
2023-05-25T10:40:46.346Z,95154.00
2023-05-25T10:41:46.372Z,95152.00
2023-05-25T10:42:46.390Z,95150.00
2023-05-25T10:43:46.390Z,95154.00
2023-05-25T10:44:46.387Z,95150.00
2023-05-25T10:45:46.612Z,95154.00
2023-05-25T10:46:46.472Z,95154.00
2023-05-25T10:47:46.623Z,95152.00
2023-05-25T10:48:46.659Z,95150.00
2023-05-25T10:49:46.717Z,95148.00
2023-05-25T10:50:46.730Z,95150.00
2023-05-25T10:51:46.758Z,95148.00
2023-05-25T10:52:46.800Z,95138.00
2023-05-25T10:53:46.859Z,95146.00
2023-05-25T10:54:46.968Z,95138.00
2023-05-25T10:55:47.224Z,95146.00
2023-05-25T10:56:47.141Z,95138.00
2023-05-25T10:57:47.115Z,95134.00
2023-05-25T10:58:47.204Z,95130.00
2023-05-25T10:59:47.254Z,95134.00
2023-05-25T11:00:47.392Z,95132.00
2023-05-25T11:01:47.428Z,95130.00
2023-05-25T11:02:47.389Z,95126.00
2023-05-25T11:03:47.540Z,95124.00
2023-05-25T11:04:47.538Z,95120.00
2023-05-25T11:05:47.638Z,95116.00
2023-05-25T11:06:47.600Z,95118.00
2023-05-25T11:07:47.660Z,95115.00
2023-05-25T11:08:47.698Z,95118.00
2023-05-25T11:09:47.740Z,95109.00
2023-05-25T11:10:47.906Z,95115.00
2023-05-25T11:11:47.913Z,95111.00
2023-05-25T11:12:47.905Z,95103.00
2023-05-25T11:13:47.943Z,95097.00
2023-05-25T11:14:47.990Z,95101.00
2023-05-25T11:15:48.069Z,95097.00
2023-05-25T11:16:48.162Z,95101.00
2023-05-25T11:17:48.304Z,95103.00
2023-05-25T11:18:48.253Z,95101.00
2023-05-25T11:19:50.371Z,95101.00
2023-05-25T11:20:48.348Z,95099.00
2023-05-25T11:21:48.398Z,95097.00
2023-05-25T11:22:49.969Z,95097.00
2023-05-25T11:23:48.341Z,95099.00
2023-05-25T11:24:48.287Z,95095.00
2023-05-25T11:25:48.300Z,95097.00
2023-05-25T11:26:48.287Z,95095.00
2023-05-25T11:27:48.256Z,95087.00
2023-05-25T11:28:48.238Z,95087.00
2023-05-25T11:29:48.264Z,95087.00
2023-05-25T11:30:48.254Z,95087.00
2023-05-25T11:31:48.290Z,95085.00
2023-05-25T11:32:48.272Z,95087.00
2023-05-25T11:33:48.262Z,95087.00
2023-05-25T11:34:48.283Z,95083.00
2023-05-25T11:35:48.225Z,95081.00
2023-05-25T11:36:48.220Z,95081.00
2023-05-25T11:37:48.226Z,95079.00
2023-05-25T11:38:59.819Z,95075.00
2023-05-25T11:39:49.221Z,95075.00
2023-05-25T11:40:48.415Z,95075.00
2023-05-25T11:41:48.203Z,95077.00
2023-05-25T11:42:48.208Z,95071.00
2023-05-25T11:43:48.180Z,95071.00
2023-05-25T11:44:48.183Z,95073.00
2023-05-25T11:45:48.177Z,95068.00